R. M. Thorstenson — KGCJ — position and weather

sailwx.info

Track history (hours):
 
Tides and Currents Weather Stations Pressure Air Temp Water Temp Dewpoint Dewpoint Depression Visibility Wind Speed Wind Dir Waves Ship Positions

R. M. Thorstenson

Owner: Icicle Vessel Holding, Inc., Seattle, WA. More information available from US FCC via Universal Licensing System and Coast Guard Vessel Documentation Center.

Last reported at 2014-Dec-29 19:12 UTC. Time now 2015-Jan-31 16:11 UTC.
Position N 51°24' W 128°02'.
Warning: this ship's position is 32 days out of date.

Type: Fishing. MMSI: 366577000.

Date/timePositionNaut miles runAvg speedWind from/ knotsBaromVisibWave heightAir tempDewpointWater temp
2014-Dec-29 19:12N 51°24' W 128°02'711.0
2014-Dec-29 18:33N 51°18' W 127°55'1111.0
2014-Dec-29 17:33N 51°08' W 127°48'1111.2
2014-Dec-29 16:33N 51°00' W 127°35'1110.9
2014-Dec-29 15:33N 50°54' W 127°21'1111.1
2014-Dec-29 14:33N 50°48' W 127°06'1310.5
2014-Dec-29 13:21N 50°40' W 126°50'810.5
2014-Dec-29 12:33N 50°34' W 126°41'80 8.7
2014-Dec-29 03:22N 49°50' W 124°57'2 1.5
2014-Dec-29 02:16N 49°49' W 124°58'6 2.0
2014-Dec-28 23:18N 49°47' W 124°49'5 5.6
2014-Dec-28 22:28N 49°45' W 124°43'1110.7
2014-Dec-28 21:25N 49°38' W 124°30'1010.7
2014-Dec-28 20:27N 49°32' W 124°16'910.1
2014-Dec-28 19:33N 49°27' W 124°05'1111.3
2014-Dec-28 18:34N 49°20' W 123°51'1010.4
2014-Dec-28 17:33N 49°13' W 123°39'1010.3
2014-Dec-28 16:33N 49°07' W 123°26'1111.0
2014-Dec-28 15:34N 48°60' W 123°14'1111.3
2014-Dec-28 14:34N 48°53' W 123°01'1010.4
2014-Dec-28 13:34N 48°46' W 122°48'9 8.6
2014-Dec-28 12:34N 48°38' W 122°44'9 9.2
2014-Dec-28 11:34N 48°29' W 122°44'9 8.8
2014-Dec-28 10:33N 48°20' W 122°46'9 9.0
2014-Dec-28 09:32N 48°11' W 122°46'1111.7
2014-Dec-28 08:33N 48°01' W 122°37'1111.0
2014-Dec-28 07:34N 47°52' W 122°28'9 9.3
2014-Dec-28 06:34N 47°43' W 122°25'3 2.7
2014-Dec-28 05:33N 47°40' W 122°24'2 1.6
2014-Dec-28 04:33N 47°39' W 122°22'0 0.0
2014-Dec-28 03:28N 47°39' W 122°22'0 0.0
2014-Dec-28 02:28N 47°39' W 122°22'0 0.0
2014-Dec-28 01:32N 47°39' W 122°22'0 0.0
2014-Dec-28 00:33N 47°39' W 122°22'0 0.4
2014-Dec-27 23:33N 47°39' W 122°22'1 1.0
2014-Dec-27 22:33N 47°39' W 122°20'0 0.0
2014-Dec-27 21:33N 47°39' W 122°20'0 0.0
2014-Dec-27 20:28N 47°39' W 122°20'0 0.0
2014-Dec-27 19:32N 47°39' W 122°20'0 0.0
2014-Dec-27 18:32N 47°39' W 122°20'0 0.0
2014-Dec-27 17:33N 47°39' W 122°20'0 0.0
2014-Dec-27 16:31N 47°39' W 122°20'0 0.0
2014-Dec-27 15:31N 47°39' W 122°20'0 0.0
2014-Dec-27 14:32N 47°39' W 122°20'0 0.0
2014-Dec-27 13:33N 47°39' W 122°20'0 0.0
2014-Dec-27 12:33N 47°39' W 122°20'0 0.0
2014-Dec-27 11:31N 47°39' W 122°20'0 0.0
2014-Dec-27 10:32N 47°39' W 122°20'0 0.0
2014-Dec-27 09:32N 47°39' W 122°20'0 0.0
2014-Dec-27 08:33N 47°39' W 122°20'0 0.0
2014-Dec-27 07:31N 47°39' W 122°20'0 0.0
2014-Dec-27 06:31N 47°39' W 122°20'0 0.0
2014-Dec-27 05:32N 47°39' W 122°20'0 0.0
2014-Dec-27 04:33N 47°39' W 122°20'0 0.0
2014-Dec-27 03:33N 47°39' W 122°20'0 0.0
2014-Dec-27 02:31N 47°39' W 122°20'0 0.0
2014-Dec-27 01:29N 47°39' W 122°20'0 0.0
2014-Dec-27 00:32N 47°39' W 122°20'0 0.0
2014-Dec-26 23:33N 47°39' W 122°20'0 0.0
2014-Dec-26 22:31N 47°39' W 122°20'0 0.0
2014-Dec-26 21:31N 47°39' W 122°20'0 0.0
2014-Dec-26 20:32N 47°39' W 122°20'0 0.0
2014-Dec-26 19:33N 47°39' W 122°20'0 0.0
2014-Dec-26 18:33N 47°39' W 122°20'0 0.0
2014-Dec-26 17:31N 47°39' W 122°20'0 0.0
2014-Dec-26 16:32N 47°39' W 122°20'0 0.0
2014-Dec-26 15:32N 47°39' W 122°20'0 0.0
2014-Dec-26 14:33N 47°39' W 122°20'0 0.0
2014-Dec-26 13:33N 47°39' W 122°20'0 0.0
2014-Dec-26 12:31N 47°39' W 122°20'0 0.0
2014-Dec-26 11:29N 47°39' W 122°20'0 0.0
2014-Dec-26 10:32N 47°39' W 122°20'0 0.0
2014-Dec-26 09:33N 47°39' W 122°20'0 0.0
2014-Dec-26 08:31N 47°39' W 122°20'0 0.0
2014-Dec-26 07:31N 47°39' W 122°20'0 0.0
2014-Dec-26 06:32N 47°39' W 122°20'0 0.0
2014-Dec-26 05:33N 47°39' W 122°20'0 0.0
2014-Dec-26 04:34N 47°39' W 122°20'0 0.0
2014-Dec-26 03:25N 47°39' W 122°20'0 0.0
2014-Dec-26 02:32N 47°39' W 122°20'0 0.0
2014-Dec-26 01:33N 47°39' W 122°20'0 0.0
2014-Dec-26 00:33N 47°39' W 122°20'0 0.0
2014-Dec-25 23:31N 47°39' W 122°20'0 0.0
2014-Dec-25 22:32N 47°39' W 122°20'0 0.0
2014-Dec-25 21:32N 47°39' W 122°20'0 0.0
2014-Dec-25 20:33N 47°39' W 122°20'0 0.0
2014-Dec-25 19:33N 47°39' W 122°20'0 0.0
2014-Dec-25 18:31N 47°39' W 122°20'0 0.0
2014-Dec-25 17:32N 47°39' W 122°20'0 0.0
2014-Dec-25 16:32N 47°39' W 122°20'0 0.0
2014-Dec-25 15:33N 47°39' W 122°20'0 0.0
2014-Dec-25 14:31N 47°39' W 122°20'0 0.0
2014-Dec-25 13:31N 47°39' W 122°20'0 0.0
2014-Dec-25 12:32N 47°39' W 122°20'0 0.0
2014-Dec-25 11:33N 47°39' W 122°20'0 0.0
2014-Dec-25 10:33N 47°39' W 122°20'0 0.0
2014-Dec-25 09:31N 47°39' W 122°20'0 0.0
2014-Dec-25 08:32N 47°39' W 122°20'0 0.0
2014-Dec-25 07:32N 47°39' W 122°20'0 0.0
2014-Dec-25 06:33N 47°39' W 122°20'0 0.0
2014-Dec-25 05:31N 47°39' W 122°20'0 0.0
2014-Dec-25 04:31N 47°39' W 122°20'0 0.0
2014-Dec-25 03:32N 47°39' W 122°20'0 0.0
2014-Dec-25 02:33N 47°39' W 122°20'0 0.0
2014-Dec-25 01:30N 47°39' W 122°20'0 0.0
2014-Dec-25 00:31N 47°39' W 122°20'0 0.0
2014-Dec-24 23:32N 47°39' W 122°20'0 0.0
2014-Dec-24 22:32N 47°39' W 122°20'0 0.0
2014-Dec-24 21:33N 47°39' W 122°20'0 0.0
2014-Dec-24 20:33N 47°39' W 122°20'0 0.0
2014-Dec-24 19:31N 47°39' W 122°20'0 0.0
2014-Dec-24 18:32N 47°39' W 122°20'0 0.0
2014-Dec-24 17:32N 47°39' W 122°20'0 0.0
2014-Dec-24 16:31N 47°39' W 122°20'0 0.0
2014-Dec-24 15:31N 47°39' W 122°20'0 0.0
2014-Dec-24 14:19N 47°39' W 122°20'0 0.0
2014-Dec-24 13:32N 47°39' W 122°20'0 0.0
2014-Dec-24 12:32N 47°39' W 122°20'0 0.0
2014-Dec-24 11:24N 47°39' W 122°20'0 0.0
2014-Dec-24 10:25N 47°39' W 122°20'0 0.0
2014-Dec-24 09:29N 47°39' W 122°20'0 0.0
2014-Dec-24 08:32N 47°39' W 122°20'0 0.0
2014-Dec-24 07:33N 47°39' W 122°20'0 0.0
2014-Dec-24 06:33N 47°39' W 122°20'0 0.0
2014-Dec-24 05:31N 47°39' W 122°20'0 0.0
2014-Dec-24 04:32N 47°39' W 122°20'0 0.0
2014-Dec-24 03:30N 47°39' W 122°20'0 0.0
2014-Dec-24 02:33N 47°39' W 122°20'0 0.0
2014-Dec-24 01:31N 47°39' W 122°20'0 0.0
2014-Dec-24 00:26N 47°39' W 122°20'0 0.0
2014-Dec-23 23:32N 47°39' W 122°20'0 0.0
2014-Dec-23 22:33N 47°39' W 122°20'0 0.0
2014-Dec-23 21:33N 47°39' W 122°20'0 0.0
2014-Dec-23 20:28N 47°39' W 122°20'0 0.0
2014-Dec-23 19:32N 47°39' W 122°20'0 0.0
2014-Dec-23 18:29N 47°39' W 122°20'0 0.0
2014-Dec-23 17:30N 47°39' W 122°20'0 0.0
2014-Dec-23 16:31N 47°39' W 122°20'0 0.0
2014-Dec-23 15:31N 47°39' W 122°20'0 0.0
2014-Dec-23 14:29N 47°39' W 122°20'0 0.0
2014-Dec-23 13:32N 47°39' W 122°20'0 0.0
2014-Dec-23 12:33N 47°39' W 122°20'0 0.0
2014-Dec-23 11:31N 47°39' W 122°20'0 0.0
2014-Dec-23 10:31N 47°39' W 122°20'0 0.0
2014-Dec-23 09:32N 47°39' W 122°20'0 0.0
2014-Dec-23 08:27N 47°39' W 122°20'0 0.0
2014-Dec-23 07:33N 47°39' W 122°20'0 0.0
2014-Dec-23 06:31N 47°39' W 122°20'0 0.0
2014-Dec-23 05:32N 47°39' W 122°20'0 0.0
2014-Dec-23 04:32N 47°39' W 122°20'0 0.0
2014-Dec-23 03:33N 47°39' W 122°20'0 0.0
2014-Dec-23 02:31N 47°39' W 122°20'0 0.0
2014-Dec-23 01:31N 47°39' W 122°20'0 0.0
2014-Dec-23 00:32N 47°39' W 122°20'0 0.0
2014-Dec-22 23:33N 47°39' W 122°20'0 0.0
2014-Dec-22 22:33N 47°39' W 122°20'0 0.0
2014-Dec-22 21:31N 47°39' W 122°20'0 0.0
2014-Dec-22 20:32N 47°39' W 122°20'0 0.0
2014-Dec-22 19:29N 47°39' W 122°20'0 0.0
2014-Dec-22 18:33N 47°39' W 122°20'0 0.0
2014-Dec-22 17:34N 47°39' W 122°20'0 0.0
2014-Dec-22 16:28N 47°39' W 122°20'0 0.0
2014-Dec-22 15:29N 47°39' W 122°20'0 0.0
2014-Dec-22 14:32N 47°39' W 122°20'0 0.0
2014-Dec-22 13:30N 47°39' W 122°20'0 0.0
2014-Dec-22 12:31N 47°39' W 122°20'0 0.0
2014-Dec-22 11:31N 47°39' W 122°20'0 0.0
2014-Dec-22 10:32N 47°39' W 122°20'0 0.0
2014-Dec-22 09:33N 47°39' W 122°20'0 0.0
2014-Dec-22 08:33N 47°39' W 122°20'0 0.0
2014-Dec-22 07:28N 47°39' W 122°20'0 0.0
2014-Dec-22 06:32N 47°39' W 122°20'0 0.0
2014-Dec-22 05:29N 47°39' W 122°20'0 0.0
2014-Dec-22 04:33N 47°39' W 122°20'0 0.0
2014-Dec-22 03:31N 47°39' W 122°20'0 0.0
2014-Dec-22 02:31N 47°39' W 122°20'0 0.0
2014-Dec-22 01:32N 47°39' W 122°20'0 0.0
2014-Dec-22 00:33N 47°39' W 122°20'0 0.0
2014-Dec-21 23:33N 47°39' W 122°20'0 0.0
2014-Dec-21 22:25N 47°39' W 122°20'0 0.0
2014-Dec-21 21:26N 47°39' W 122°20'0 0.0
2014-Dec-21 20:32N 47°39' W 122°20'0 0.0
2014-Dec-21 19:30N 47°39' W 122°20'0 0.0
2014-Dec-21 18:33N 47°39' W 122°20'0 0.0
2014-Dec-21 17:31N 47°39' W 122°20'0 0.0
2014-Dec-21 16:32N 47°39' W 122°20'0 0.0
2014-Dec-21 15:32N 47°39' W 122°20'0 0.0
2014-Dec-21 14:33N 47°39' W 122°20'0 0.0
2014-Dec-21 13:31N 47°39' W 122°20'0 0.0
2014-Dec-21 12:28N 47°39' W 122°20'0 0.0
2014-Dec-21 11:29N 47°39' W 122°20'0 0.0
2014-Dec-21 10:33N 47°39' W 122°20'0 0.0
2014-Dec-21 09:33N 47°39' W 122°20'0 0.0
2014-Dec-21 08:31N 47°39' W 122°20'0 0.0
2014-Dec-21 07:32N 47°39' W 122°20'0 0.0
2014-Dec-21 06:32N 47°39' W 122°20'0 0.0
2014-Dec-21 05:33N 47°39' W 122°20'0 0.0
2014-Dec-21 04:31N 47°39' W 122°20'0 0.0
2014-Dec-21 03:25N 47°39' W 122°20'0 0.0
2014-Dec-21 02:32N 47°39' W 122°20'0 0.0
2014-Dec-21 01:30N 47°39' W 122°20'0 0.0
2014-Dec-21 00:30N 47°39' W 122°20'0 0.0
2014-Dec-20 23:31N 47°39' W 122°20'0 0.0
2014-Dec-20 22:31N 47°39' W 122°20'0 0.0
2014-Dec-20 21:32N 47°39' W 122°20'0 0.0
2014-Dec-20 20:33N 47°39' W 122°20'0 0.0
2014-Dec-20 19:33N 47°39' W 122°20'0 0.0
2014-Dec-20 18:25N 47°39' W 122°20'0 0.0
2014-Dec-20 17:29N 47°39' W 122°20'0 0.0
2014-Dec-20 16:32N 47°39' W 122°20'0 0.0
2014-Dec-20 15:30N 47°39' W 122°20'0 0.0
2014-Dec-20 14:31N 47°39' W 122°20'0 0.0
2014-Dec-20 13:28N 47°39' W 122°20'0 0.0
2014-Dec-20 12:32N 47°39' W 122°20'0 0.0
2014-Dec-20 11:33N 47°39' W 122°20'0 0.0
2014-Dec-20 10:30N 47°39' W 122°20'0 0.0
2014-Dec-20 09:28N 47°39' W 122°20'0 0.0
2014-Dec-20 08:32N 47°39' W 122°20'0 0.0
2014-Dec-20 07:32N 47°39' W 122°20'0 0.0
2014-Dec-20 06:30N 47°39' W 122°20'0 0.0
2014-Dec-20 05:34N 47°39' W 122°20'0 0.0
2014-Dec-20 04:31N 47°39' W 122°20'0 0.0
2014-Dec-20 03:32N 47°39' W 122°20'0 0.0
2014-Dec-20 02:32N 47°39' W 122°20'0 0.0
2014-Dec-20 01:33N 47°39' W 122°20'0 0.0
2014-Dec-20 00:28N 47°39' W 122°20'0 0.0
2014-Dec-19 23:31N 47°39' W 122°20'0 0.0
2014-Dec-19 22:32N 47°39' W 122°20'0 0.0
2014-Dec-19 21:33N 47°39' W 122°20'0 0.0
2014-Dec-19 20:33N 47°39' W 122°20'0 0.0
2014-Dec-19 19:31N 47°39' W 122°20'  
Track history (hours):
 
Tides and Currents Weather Stations Pressure Air Temp Water Temp Dewpoint Dewpoint Depression Visibility Wind Speed Wind Dir Waves Ship Positions

R. M. Thorstenson

Owner: Icicle Vessel Holding, Inc., Seattle, WA. More information available from US FCC via Universal Licensing System and Coast Guard Vessel Documentation Center.

Last reported at 2014-Dec-29 19:12 UTC. Time now 2015-Jan-31 16:11 UTC.
Position N 51°24' W 128°02'.
Warning: this ship's position is 32 days out of date.

Type: Fishing. MMSI: 366577000.

Date/timePositionNaut miles runAvg speedWind from/ knotsBaromVisibWave heightAir tempDewpointWater temp
2014-Dec-29 19:12N 51°24' W 128°02'711.0
2014-Dec-29 18:33N 51°18' W 127°55'1111.0
2014-Dec-29 17:33N 51°08' W 127°48'1111.2
2014-Dec-29 16:33N 51°00' W 127°35'1110.9
2014-Dec-29 15:33N 50°54' W 127°21'1111.1
2014-Dec-29 14:33N 50°48' W 127°06'1310.5
2014-Dec-29 13:21N 50°40' W 126°50'810.5
2014-Dec-29 12:33N 50°34' W 126°41'80 8.7
2014-Dec-29 03:22N 49°50' W 124°57'2 1.5
2014-Dec-29 02:16N 49°49' W 124°58'6 2.0
2014-Dec-28 23:18N 49°47' W 124°49'5 5.6
2014-Dec-28 22:28N 49°45' W 124°43'1110.7
2014-Dec-28 21:25N 49°38' W 124°30'1010.7
2014-Dec-28 20:27N 49°32' W 124°16'910.1
2014-Dec-28 19:33N 49°27' W 124°05'1111.3
2014-Dec-28 18:34N 49°20' W 123°51'1010.4
2014-Dec-28 17:33N 49°13' W 123°39'1010.3
2014-Dec-28 16:33N 49°07' W 123°26'1111.0
2014-Dec-28 15:34N 48°60' W 123°14'1111.3
2014-Dec-28 14:34N 48°53' W 123°01'1010.4
2014-Dec-28 13:34N 48°46' W 122°48'9 8.6
2014-Dec-28 12:34N 48°38' W 122°44'9 9.2
2014-Dec-28 11:34N 48°29' W 122°44'9 8.8
2014-Dec-28 10:33N 48°20' W 122°46'9 9.0
2014-Dec-28 09:32N 48°11' W 122°46'1111.7
2014-Dec-28 08:33N 48°01' W 122°37'1111.0
2014-Dec-28 07:34N 47°52' W 122°28'9 9.3
2014-Dec-28 06:34N 47°43' W 122°25'3 2.7
2014-Dec-28 05:33N 47°40' W 122°24'2 1.6
2014-Dec-28 04:33N 47°39' W 122°22'0 0.0
2014-Dec-28 03:28N 47°39' W 122°22'0 0.0
2014-Dec-28 02:28N 47°39' W 122°22'0 0.0
2014-Dec-28 01:32N 47°39' W 122°22'0 0.0
2014-Dec-28 00:33N 47°39' W 122°22'0 0.4
2014-Dec-27 23:33N 47°39' W 122°22'1 1.0
2014-Dec-27 22:33N 47°39' W 122°20'0 0.0
2014-Dec-27 21:33N 47°39' W 122°20'0 0.0
2014-Dec-27 20:28N 47°39' W 122°20'0 0.0
2014-Dec-27 19:32N 47°39' W 122°20'0 0.0
2014-Dec-27 18:32N 47°39' W 122°20'0 0.0
2014-Dec-27 17:33N 47°39' W 122°20'0 0.0
2014-Dec-27 16:31N 47°39' W 122°20'0 0.0
2014-Dec-27 15:31N 47°39' W 122°20'0 0.0
2014-Dec-27 14:32N 47°39' W 122°20'0 0.0
2014-Dec-27 13:33N 47°39' W 122°20'0 0.0
2014-Dec-27 12:33N 47°39' W 122°20'0 0.0
2014-Dec-27 11:31N 47°39' W 122°20'0 0.0
2014-Dec-27 10:32N 47°39' W 122°20'0 0.0
2014-Dec-27 09:32N 47°39' W 122°20'0 0.0
2014-Dec-27 08:33N 47°39' W 122°20'0 0.0
2014-Dec-27 07:31N 47°39' W 122°20'0 0.0
2014-Dec-27 06:31N 47°39' W 122°20'0 0.0
2014-Dec-27 05:32N 47°39' W 122°20'0 0.0
2014-Dec-27 04:33N 47°39' W 122°20'0 0.0
2014-Dec-27 03:33N 47°39' W 122°20'0 0.0
2014-Dec-27 02:31N 47°39' W 122°20'0 0.0
2014-Dec-27 01:29N 47°39' W 122°20'0 0.0
2014-Dec-27 00:32N 47°39' W 122°20'0 0.0
2014-Dec-26 23:33N 47°39' W 122°20'0 0.0
2014-Dec-26 22:31N 47°39' W 122°20'0 0.0
2014-Dec-26 21:31N 47°39' W 122°20'0 0.0
2014-Dec-26 20:32N 47°39' W 122°20'0 0.0
2014-Dec-26 19:33N 47°39' W 122°20'0 0.0
2014-Dec-26 18:33N 47°39' W 122°20'0 0.0
2014-Dec-26 17:31N 47°39' W 122°20'0 0.0
2014-Dec-26 16:32N 47°39' W 122°20'0 0.0
2014-Dec-26 15:32N 47°39' W 122°20'0 0.0
2014-Dec-26 14:33N 47°39' W 122°20'0 0.0
2014-Dec-26 13:33N 47°39' W 122°20'0 0.0
2014-Dec-26 12:31N 47°39' W 122°20'0 0.0
2014-Dec-26 11:29N 47°39' W 122°20'0 0.0
2014-Dec-26 10:32N 47°39' W 122°20'0 0.0
2014-Dec-26 09:33N 47°39' W 122°20'0 0.0
2014-Dec-26 08:31N 47°39' W 122°20'0 0.0
2014-Dec-26 07:31N 47°39' W 122°20'0 0.0
2014-Dec-26 06:32N 47°39' W 122°20'0 0.0
2014-Dec-26 05:33N 47°39' W 122°20'0 0.0
2014-Dec-26 04:34N 47°39' W 122°20'0 0.0
2014-Dec-26 03:25N 47°39' W 122°20'0 0.0
2014-Dec-26 02:32N 47°39' W 122°20'0 0.0
2014-Dec-26 01:33N 47°39' W 122°20'0 0.0
2014-Dec-26 00:33N 47°39' W 122°20'0 0.0
2014-Dec-25 23:31N 47°39' W 122°20'0 0.0
2014-Dec-25 22:32N 47°39' W 122°20'0 0.0
2014-Dec-25 21:32N 47°39' W 122°20'0 0.0
2014-Dec-25 20:33N 47°39' W 122°20'0 0.0
2014-Dec-25 19:33N 47°39' W 122°20'0 0.0
2014-Dec-25 18:31N 47°39' W 122°20'0 0.0
2014-Dec-25 17:32N 47°39' W 122°20'0 0.0
2014-Dec-25 16:32N 47°39' W 122°20'0 0.0
2014-Dec-25 15:33N 47°39' W 122°20'0 0.0
2014-Dec-25 14:31N 47°39' W 122°20'0 0.0
2014-Dec-25 13:31N 47°39' W 122°20'0 0.0
2014-Dec-25 12:32N 47°39' W 122°20'0 0.0
2014-Dec-25 11:33N 47°39' W 122°20'0 0.0
2014-Dec-25 10:33N 47°39' W 122°20'0 0.0
2014-Dec-25 09:31N 47°39' W 122°20'0 0.0
2014-Dec-25 08:32N 47°39' W 122°20'0 0.0
2014-Dec-25 07:32N 47°39' W 122°20'0 0.0
2014-Dec-25 06:33N 47°39' W 122°20'0 0.0
2014-Dec-25 05:31N 47°39' W 122°20'0 0.0
2014-Dec-25 04:31N 47°39' W 122°20'0 0.0
2014-Dec-25 03:32N 47°39' W 122°20'0 0.0
2014-Dec-25 02:33N 47°39' W 122°20'0 0.0
2014-Dec-25 01:30N 47°39' W 122°20'0 0.0
2014-Dec-25 00:31N 47°39' W 122°20'0 0.0
2014-Dec-24 23:32N 47°39' W 122°20'0 0.0
2014-Dec-24 22:32N 47°39' W 122°20'0 0.0
2014-Dec-24 21:33N 47°39' W 122°20'0 0.0
2014-Dec-24 20:33N 47°39' W 122°20'0 0.0
2014-Dec-24 19:31N 47°39' W 122°20'0 0.0
2014-Dec-24 18:32N 47°39' W 122°20'0 0.0
2014-Dec-24 17:32N 47°39' W 122°20'0 0.0
2014-Dec-24 16:31N 47°39' W 122°20'0 0.0
2014-Dec-24 15:31N 47°39' W 122°20'0 0.0
2014-Dec-24 14:19N 47°39' W 122°20'0 0.0
2014-Dec-24 13:32N 47°39' W 122°20'0 0.0
2014-Dec-24 12:32N 47°39' W 122°20'0 0.0
2014-Dec-24 11:24N 47°39' W 122°20'0 0.0
2014-Dec-24 10:25N 47°39' W 122°20'0 0.0
2014-Dec-24 09:29N 47°39' W 122°20'0 0.0
2014-Dec-24 08:32N 47°39' W 122°20'0 0.0
2014-Dec-24 07:33N 47°39' W 122°20'0 0.0
2014-Dec-24 06:33N 47°39' W 122°20'0 0.0
2014-Dec-24 05:31N 47°39' W 122°20'0 0.0
2014-Dec-24 04:32N 47°39' W 122°20'0 0.0
2014-Dec-24 03:30N 47°39' W 122°20'0 0.0
2014-Dec-24 02:33N 47°39' W 122°20'0 0.0
2014-Dec-24 01:31N 47°39' W 122°20'0 0.0
2014-Dec-24 00:26N 47°39' W 122°20'0 0.0
2014-Dec-23 23:32N 47°39' W 122°20'0 0.0
2014-Dec-23 22:33N 47°39' W 122°20'0 0.0
2014-Dec-23 21:33N 47°39' W 122°20'0 0.0
2014-Dec-23 20:28N 47°39' W 122°20'0 0.0
2014-Dec-23 19:32N 47°39' W 122°20'0 0.0
2014-Dec-23 18:29N 47°39' W 122°20'0 0.0
2014-Dec-23 17:30N 47°39' W 122°20'0 0.0
2014-Dec-23 16:31N 47°39' W 122°20'0 0.0
2014-Dec-23 15:31N 47°39' W 122°20'0 0.0
2014-Dec-23 14:29N 47°39' W 122°20'0 0.0
2014-Dec-23 13:32N 47°39' W 122°20'0 0.0
2014-Dec-23 12:33N 47°39' W 122°20'0 0.0
2014-Dec-23 11:31N 47°39' W 122°20'0 0.0
2014-Dec-23 10:31N 47°39' W 122°20'0 0.0
2014-Dec-23 09:32N 47°39' W 122°20'0 0.0
2014-Dec-23 08:27N 47°39' W 122°20'0 0.0
2014-Dec-23 07:33N 47°39' W 122°20'0 0.0
2014-Dec-23 06:31N 47°39' W 122°20'0 0.0
2014-Dec-23 05:32N 47°39' W 122°20'0 0.0
2014-Dec-23 04:32N 47°39' W 122°20'0 0.0
2014-Dec-23 03:33N 47°39' W 122°20'0 0.0
2014-Dec-23 02:31N 47°39' W 122°20'0 0.0
2014-Dec-23 01:31N 47°39' W 122°20'0 0.0
2014-Dec-23 00:32N 47°39' W 122°20'0 0.0
2014-Dec-22 23:33N 47°39' W 122°20'0 0.0
2014-Dec-22 22:33N 47°39' W 122°20'0 0.0
2014-Dec-22 21:31N 47°39' W 122°20'0 0.0
2014-Dec-22 20:32N 47°39' W 122°20'0 0.0
2014-Dec-22 19:29N 47°39' W 122°20'0 0.0
2014-Dec-22 18:33N 47°39' W 122°20'0 0.0
2014-Dec-22 17:34N 47°39' W 122°20'0 0.0
2014-Dec-22 16:28N 47°39' W 122°20'0 0.0
2014-Dec-22 15:29N 47°39' W 122°20'0 0.0
2014-Dec-22 14:32N 47°39' W 122°20'0 0.0
2014-Dec-22 13:30N 47°39' W 122°20'0 0.0
2014-Dec-22 12:31N 47°39' W 122°20'0 0.0
2014-Dec-22 11:31N 47°39' W 122°20'0 0.0
2014-Dec-22 10:32N 47°39' W 122°20'0 0.0
2014-Dec-22 09:33N 47°39' W 122°20'0 0.0
2014-Dec-22 08:33N 47°39' W 122°20'0 0.0
2014-Dec-22 07:28N 47°39' W 122°20'0 0.0
2014-Dec-22 06:32N 47°39' W 122°20'0 0.0
2014-Dec-22 05:29N 47°39' W 122°20'0 0.0
2014-Dec-22 04:33N 47°39' W 122°20'0 0.0
2014-Dec-22 03:31N 47°39' W 122°20'0 0.0
2014-Dec-22 02:31N 47°39' W 122°20'0 0.0
2014-Dec-22 01:32N 47°39' W 122°20'0 0.0
2014-Dec-22 00:33N 47°39' W 122°20'0 0.0
2014-Dec-21 23:33N 47°39' W 122°20'0 0.0
2014-Dec-21 22:25N 47°39' W 122°20'0 0.0
2014-Dec-21 21:26N 47°39' W 122°20'0 0.0
2014-Dec-21 20:32N 47°39' W 122°20'0 0.0
2014-Dec-21 19:30N 47°39' W 122°20'0 0.0
2014-Dec-21 18:33N 47°39' W 122°20'0 0.0
2014-Dec-21 17:31N 47°39' W 122°20'0 0.0
2014-Dec-21 16:32N 47°39' W 122°20'0 0.0
2014-Dec-21 15:32N 47°39' W 122°20'0 0.0
2014-Dec-21 14:33N 47°39' W 122°20'0 0.0
2014-Dec-21 13:31N 47°39' W 122°20'0 0.0
2014-Dec-21 12:28N 47°39' W 122°20'0 0.0
2014-Dec-21 11:29N 47°39' W 122°20'0 0.0
2014-Dec-21 10:33N 47°39' W 122°20'0 0.0
2014-Dec-21 09:33N 47°39' W 122°20'0 0.0
2014-Dec-21 08:31N 47°39' W 122°20'0 0.0
2014-Dec-21 07:32N 47°39' W 122°20'0 0.0
2014-Dec-21 06:32N 47°39' W 122°20'0 0.0
2014-Dec-21 05:33N 47°39' W 122°20'0 0.0
2014-Dec-21 04:31N 47°39' W 122°20'0 0.0
2014-Dec-21 03:25N 47°39' W 122°20'0 0.0
2014-Dec-21 02:32N 47°39' W 122°20'0 0.0
2014-Dec-21 01:30N 47°39' W 122°20'0 0.0
2014-Dec-21 00:30N 47°39' W 122°20'0 0.0
2014-Dec-20 23:31N 47°39' W 122°20'0 0.0
2014-Dec-20 22:31N 47°39' W 122°20'0 0.0
2014-Dec-20 21:32N 47°39' W 122°20'0 0.0
2014-Dec-20 20:33N 47°39' W 122°20'0 0.0
2014-Dec-20 19:33N 47°39' W 122°20'0 0.0
2014-Dec-20 18:25N 47°39' W 122°20'0 0.0
2014-Dec-20 17:29N 47°39' W 122°20'0 0.0
2014-Dec-20 16:32N 47°39' W 122°20'0 0.0
2014-Dec-20 15:30N 47°39' W 122°20'0 0.0
2014-Dec-20 14:31N 47°39' W 122°20'0 0.0
2014-Dec-20 13:28N 47°39' W 122°20'0 0.0
2014-Dec-20 12:32N 47°39' W 122°20'0 0.0
2014-Dec-20 11:33N 47°39' W 122°20'0 0.0
2014-Dec-20 10:30N 47°39' W 122°20'0 0.0
2014-Dec-20 09:28N 47°39' W 122°20'0 0.0
2014-Dec-20 08:32N 47°39' W 122°20'0 0.0
2014-Dec-20 07:32N 47°39' W 122°20'0 0.0
2014-Dec-20 06:30N 47°39' W 122°20'0 0.0
2014-Dec-20 05:34N 47°39' W 122°20'0 0.0
2014-Dec-20 04:31N 47°39' W 122°20'0 0.0
2014-Dec-20 03:32N 47°39' W 122°20'0 0.0
2014-Dec-20 02:32N 47°39' W 122°20'0 0.0
2014-Dec-20 01:33N 47°39' W 122°20'0 0.0
2014-Dec-20 00:28N 47°39' W 122°20'0 0.0
2014-Dec-19 23:31N 47°39' W 122°20'0 0.0
2014-Dec-19 22:32N 47°39' W 122°20'0 0.0
2014-Dec-19 21:33N 47°39' W 122°20'0 0.0
2014-Dec-19 20:33N 47°39' W 122°20'0 0.0
2014-Dec-19 19:31N 47°39' W 122°20'  

Dump ship's entire track history